createdAt,value
2023-12-05T00:00:14.417Z,88.05
2023-12-05T00:02:42.912Z,88.10
2023-12-05T00:05:12.223Z,88.53
2023-12-05T00:07:41.399Z,88.29
2023-12-05T00:10:11.805Z,88.20
2023-12-05T00:12:40.827Z,88.31
2023-12-05T00:15:10.941Z,88.40
2023-12-05T00:17:39.499Z,88.34
2023-12-05T00:20:09.700Z,87.78
2023-12-05T00:22:39.149Z,87.46
2023-12-05T00:25:08.906Z,87.92
2023-12-05T00:27:38.788Z,87.93
2023-12-05T00:30:09.080Z,88.21
2023-12-05T00:32:37.618Z,88.13
2023-12-05T00:35:07.369Z,87.92
2023-12-05T00:37:35.888Z,88.05
2023-12-05T00:40:05.868Z,88.44
2023-12-05T00:42:34.434Z,88.07
2023-12-05T00:45:04.701Z,88.43
2023-12-05T00:47:33.216Z,88.29
2023-12-05T00:50:01.659Z,88.09
2023-12-05T00:52:30.128Z,88.18
2023-12-05T00:54:59.020Z,88.29
2023-12-05T00:57:27.425Z,88.74
2023-12-05T00:59:56.252Z,88.50
2023-12-05T01:02:26.077Z,87.73
2023-12-05T01:04:54.628Z,88.04
2023-12-05T01:07:23.292Z,88.37
2023-12-05T01:09:51.786Z,88.58
2023-12-05T01:12:21.065Z,88.30
2023-12-05T01:14:51.748Z,88.10
2023-12-05T01:17:20.381Z,88.08
2023-12-05T01:19:50.653Z,88.41
2023-12-05T01:22:19.065Z,88.76
2023-12-05T01:24:55.932Z,88.28
2023-12-05T01:27:24.731Z,87.76
2023-12-05T01:29:53.602Z,87.92
2023-12-05T01:32:22.171Z,87.85
2023-12-05T01:34:51.956Z,88.41
2023-12-05T01:37:20.635Z,88.00
2023-12-05T01:39:49.088Z,88.13
2023-12-05T01:42:17.619Z,87.92
2023-12-05T01:44:46.118Z,88.35
2023-12-05T01:47:17.594Z,87.90
2023-12-05T01:49:48.146Z,87.88
2023-12-05T01:52:18.709Z,87.70
2023-12-05T01:54:47.993Z,87.66
2023-12-05T01:57:17.569Z,87.64
2023-12-05T01:59:46.155Z,87.02
2023-12-05T02:02:15.253Z,86.89
2023-12-05T02:04:45.735Z,87.01
2023-12-05T02:07:15.759Z,86.84
2023-12-05T02:09:47.378Z,87.50
2023-12-05T02:12:15.893Z,87.09
2023-12-05T02:14:44.739Z,87.04
2023-12-05T02:17:22.778Z,87.46
2023-12-05T02:20:07.763Z,87.04
2023-12-05T02:23:03.524Z,86.97
2023-12-05T02:25:56.168Z,87.30
2023-12-05T02:28:26.858Z,87.30
2023-12-05T02:30:55.439Z,87.38
2023-12-05T02:33:24.047Z,87.36
2023-12-05T02:36:03.606Z,87.29
2023-12-05T02:38:42.048Z,87.14
2023-12-05T02:41:18.593Z,87.41
2023-12-05T02:43:53.193Z,86.96
2023-12-05T02:46:23.301Z,87.53
2023-12-05T02:48:52.870Z,87.39
2023-12-05T02:51:22.286Z,87.03
2023-12-05T02:53:50.804Z,87.64
2023-12-05T02:56:20.676Z,87.40
2023-12-05T02:58:50.445Z,86.81
2023-12-05T03:01:18.970Z,87.08
2023-12-05T03:03:47.882Z,86.84
2023-12-05T03:06:16.483Z,87.44
2023-12-05T03:08:44.987Z,87.51
2023-12-05T03:11:13.638Z,87.67
2023-12-05T03:13:42.348Z,87.14
2023-12-05T03:16:12.784Z,87.40
2023-12-05T03:18:42.378Z,87.06
2023-12-05T03:21:11.303Z,86.78
2023-12-05T03:23:40.083Z,86.60
2023-12-05T03:26:09.719Z,86.54
2023-12-05T03:28:38.304Z,86.84
2023-12-05T03:31:07.233Z,87.05
2023-12-05T03:33:39.289Z,87.08
2023-12-05T03:36:09.028Z,87.14
2023-12-05T03:38:39.923Z,86.78
2023-12-05T03:41:10.797Z,86.61
2023-12-05T03:43:39.246Z,86.92
2023-12-05T03:46:08.138Z,86.91
2023-12-05T03:48:38.984Z,87.32
2023-12-05T03:51:08.571Z,87.04
2023-12-05T03:53:37.051Z,87.95
2023-12-05T03:56:06.622Z,87.59
2023-12-05T03:58:35.177Z,87.93
2023-12-05T04:01:03.649Z,88.31
2023-12-05T04:03:32.343Z,87.46
2023-12-05T04:06:02.280Z,87.82
2023-12-05T04:08:30.708Z,87.56
2023-12-05T04:10:59.222Z,87.07
2023-12-05T04:13:30.080Z,87.44
2023-12-05T04:15:59.223Z,86.67
2023-12-05T04:18:27.818Z,87.04
2023-12-05T04:20:56.259Z,87.88
2023-12-05T04:23:26.209Z,88.30
2023-12-05T04:25:54.672Z,87.64
2023-12-05T04:28:23.527Z,87.91
2023-12-05T04:30:51.945Z,88.06
2023-12-05T04:33:20.739Z,87.30
2023-12-05T04:35:49.226Z,87.42
2023-12-05T04:38:18.587Z,87.72
2023-12-05T04:40:48.397Z,87.62
2023-12-05T04:43:17.435Z,87.00
2023-12-05T04:45:47.053Z,86.82
2023-12-05T04:48:15.942Z,86.69
2023-12-05T04:50:47.200Z,87.28
2023-12-05T04:53:15.756Z,87.01
2023-12-05T04:55:44.536Z,87.16
2023-12-05T04:58:14.373Z,87.37
2023-12-05T05:00:43.140Z,87.08
2023-12-05T05:03:12.943Z,87.75
2023-12-05T05:05:41.693Z,87.23
2023-12-05T05:08:10.310Z,87.06
2023-12-05T05:10:38.737Z,86.98
2023-12-05T05:13:07.232Z,86.60
2023-12-05T05:15:37.243Z,86.66
2023-12-05T05:18:05.968Z,86.82
2023-12-05T05:20:34.480Z,86.64
2023-12-05T05:23:03.111Z,86.83
2023-12-05T05:25:32.132Z,86.67
2023-12-05T05:28:00.735Z,86.68
2023-12-05T05:30:29.289Z,86.16
2023-12-05T05:32:59.360Z,85.84
2023-12-05T05:35:27.996Z,87.03
2023-12-05T05:37:56.513Z,86.43
2023-12-05T05:40:27.388Z,87.00
2023-12-05T05:42:56.122Z,87.00
2023-12-05T05:45:27.383Z,86.70
2023-12-05T05:47:55.911Z,87.70
2023-12-05T05:50:25.871Z,87.72
2023-12-05T05:52:54.350Z,87.54
2023-12-05T05:55:26.083Z,88.02
2023-12-05T05:57:55.052Z,89.09
2023-12-05T06:00:24.595Z,89.58
2023-12-05T06:02:53.176Z,89.50
2023-12-05T06:05:21.757Z,89.43
2023-12-05T06:07:51.625Z,89.98
2023-12-05T06:10:20.498Z,89.74
2023-12-05T06:12:49.161Z,89.72
2023-12-05T06:15:17.881Z,89.74
2023-12-05T06:17:49.350Z,89.85
2023-12-05T06:20:18.561Z,89.64
2023-12-05T06:22:47.659Z,90.04
2023-12-05T06:25:17.702Z,89.77
2023-12-05T06:27:47.601Z,89.20
2023-12-05T06:30:21.809Z,88.57
2023-12-05T06:32:55.596Z,89.15
2023-12-05T06:35:24.148Z,89.02
2023-12-05T06:37:54.035Z,89.05
2023-12-05T06:40:23.971Z,89.74
2023-12-05T06:42:52.454Z,89.36
2023-12-05T06:45:20.982Z,88.89
2023-12-05T06:47:49.538Z,89.28
2023-12-05T06:50:18.398Z,89.14
2023-12-05T06:52:47.406Z,89.62
2023-12-05T06:55:16.037Z,89.19
2023-12-05T06:57:46.016Z,88.88
2023-12-05T07:00:16.960Z,89.14
2023-12-05T07:02:49.106Z,89.00
2023-12-05T07:05:17.992Z,89.28
2023-12-05T07:07:46.960Z,89.57
2023-12-05T07:10:15.378Z,89.21
2023-12-05T07:12:45.742Z,89.41
2023-12-05T07:15:14.406Z,89.44
2023-12-05T07:17:42.956Z,89.67
2023-12-05T07:20:12.183Z,89.52
2023-12-05T07:22:40.738Z,89.31
2023-12-05T07:25:09.836Z,89.96
2023-12-05T07:27:38.414Z,90.63
2023-12-05T07:30:10.145Z,91.01
2023-12-05T07:32:38.909Z,90.41
2023-12-05T07:35:08.673Z,90.56
2023-12-05T07:37:37.412Z,90.86
2023-12-05T07:40:07.839Z,90.56
2023-12-05T07:42:36.455Z,90.62
2023-12-05T07:45:06.445Z,90.60
2023-12-05T07:47:36.503Z,90.18
2023-12-05T07:50:05.808Z,90.21
2023-12-05T07:52:34.282Z,89.68
2023-12-05T07:55:02.717Z,89.69
2023-12-05T07:57:31.233Z,90.17
2023-12-05T08:00:00.991Z,89.73
2023-12-05T08:02:29.813Z,89.89
2023-12-05T08:04:59.751Z,89.76
2023-12-05T08:07:28.809Z,90.12
2023-12-05T08:09:58.525Z,90.45
2023-12-05T08:12:27.029Z,90.13
2023-12-05T08:14:55.560Z,89.22
2023-12-05T08:17:24.102Z,90.12
2023-12-05T08:19:52.621Z,90.78
2023-12-05T08:22:23.150Z,90.65
2023-12-05T08:24:52.124Z,90.75
2023-12-05T08:27:20.540Z,89.83
2023-12-05T08:29:48.965Z,89.92
2023-12-05T08:32:17.456Z,90.00
2023-12-05T08:34:46.094Z,90.37
2023-12-05T08:37:14.586Z,90.38
2023-12-05T08:39:44.801Z,90.25
2023-12-05T08:42:13.272Z,89.33
2023-12-05T08:44:41.689Z,89.58
2023-12-05T08:47:10.597Z,90.47
2023-12-05T08:49:39.139Z,90.76
2023-12-05T08:52:07.883Z,90.86
2023-12-05T08:54:36.422Z,90.00
2023-12-05T08:57:06.994Z,90.22
2023-12-05T08:59:35.365Z,91.10
2023-12-05T09:02:06.138Z,90.70
2023-12-05T09:04:34.735Z,89.74
2023-12-05T09:07:03.527Z,89.00
2023-12-05T09:09:32.385Z,89.23
2023-12-05T09:12:01.325Z,88.23
2023-12-05T09:14:31.318Z,88.78
2023-12-05T09:17:00.708Z,87.52
2023-12-05T09:19:29.340Z,87.62
2023-12-05T09:21:58.220Z,88.38
2023-12-05T09:24:27.188Z,88.42
2023-12-05T09:26:55.900Z,89.19
2023-12-05T09:29:24.549Z,88.44
2023-12-05T09:31:54.373Z,88.26
2023-12-05T09:34:23.134Z,88.43
2023-12-05T09:36:51.668Z,88.42
2023-12-05T09:39:20.344Z,89.30
2023-12-05T09:41:54.778Z,88.50
2023-12-05T09:44:24.321Z,87.82
2023-12-05T09:46:59.132Z,88.25
2023-12-05T09:49:29.730Z,87.68
2023-12-05T09:51:59.382Z,88.01
2023-12-05T09:54:28.845Z,88.67
2023-12-05T09:56:59.718Z,88.12
2023-12-05T09:59:28.638Z,87.86
2023-12-05T10:02:04.761Z,88.72
2023-12-05T10:04:43.056Z,89.60
2023-12-05T10:07:12.869Z,89.60
2023-12-05T10:09:43.994Z,89.44
2023-12-05T10:12:14.637Z,89.31
2023-12-05T10:14:43.536Z,88.75
2023-12-05T10:17:13.940Z,89.21
2023-12-05T10:19:42.564Z,88.07
2023-12-05T10:22:11.808Z,87.72
2023-12-05T10:24:47.843Z,87.71
2023-12-05T10:27:17.741Z,88.64
2023-12-05T10:29:46.123Z,88.63
2023-12-05T10:32:16.280Z,89.32
2023-12-05T10:34:50.340Z,89.30
2023-12-05T10:37:23.710Z,89.34
2023-12-05T10:39:53.296Z,88.99
2023-12-05T10:42:22.201Z,88.05
2023-12-05T10:44:50.751Z,88.19
2023-12-05T10:47:20.887Z,88.84
2023-12-05T10:49:50.970Z,88.81
2023-12-05T10:52:21.839Z,88.22
2023-12-05T10:54:57.937Z,88.59
2023-12-05T10:57:34.301Z,88.17
2023-12-05T11:00:06.946Z,88.00
2023-12-05T11:02:40.257Z,88.97
2023-12-05T11:05:12.018Z,89.28
2023-12-05T11:07:40.636Z,88.48
2023-12-05T11:10:10.483Z,88.81
2023-12-05T11:12:41.755Z,89.18
2023-12-05T11:15:13.190Z,87.70
2023-12-05T11:17:54.827Z,87.84
2023-12-05T11:20:45.991Z,87.83
2023-12-05T11:23:39.758Z,87.41
2023-12-05T11:26:45.449Z,88.25
2023-12-05T11:29:50.358Z,87.92
2023-12-05T11:32:28.529Z,88.19
2023-12-05T11:35:12.879Z,88.13
2023-12-05T11:38:14.736Z,88.01
2023-12-05T11:40:43.727Z,88.23
2023-12-05T11:43:14.223Z,88.23
2023-12-05T11:45:44.890Z,88.44
2023-12-05T11:48:15.679Z,87.83
2023-12-05T11:50:47.253Z,88.36
2023-12-05T11:53:17.619Z,87.23
2023-12-05T11:55:49.464Z,86.91
2023-12-05T11:58:29.897Z,86.74
2023-12-05T12:01:07.768Z,86.79
2023-12-05T12:03:48.773Z,86.82
2023-12-05T12:06:22.460Z,87.07
2023-12-05T12:08:55.003Z,87.60
2023-12-05T12:11:24.334Z,87.34
2023-12-05T12:13:53.388Z,88.32
2023-12-05T12:16:24.998Z,87.97
2023-12-05T12:18:55.206Z,87.47
2023-12-05T12:21:31.629Z,87.96
2023-12-05T12:24:00.595Z,87.91
2023-12-05T12:26:33.467Z,88.20
2023-12-05T12:29:09.079Z,88.14
2023-12-05T12:31:38.054Z,89.22
2023-12-05T12:34:09.399Z,89.89
2023-12-05T12:36:39.938Z,89.71
2023-12-05T12:39:08.531Z,90.08
2023-12-05T12:41:37.309Z,89.04
2023-12-05T12:44:07.046Z,89.10
2023-12-05T12:46:35.692Z,90.02
2023-12-05T12:49:29.657Z,90.20
2023-12-05T12:51:59.880Z,89.41
2023-12-05T12:54:28.688Z,89.29
2023-12-05T12:56:57.830Z,89.20
2023-12-05T12:59:26.260Z,89.23
2023-12-05T13:01:55.509Z,88.71
2023-12-05T13:04:25.940Z,88.13
2023-12-05T13:06:57.994Z,88.59
2023-12-05T13:09:27.559Z,87.62
2023-12-05T13:11:56.201Z,88.61
2023-12-05T13:14:24.863Z,87.79
2023-12-05T13:16:53.381Z,88.20
2023-12-05T13:19:28.503Z,88.34
2023-12-05T13:21:58.583Z,88.67
2023-12-05T13:24:27.748Z,89.43
2023-12-05T13:26:59.589Z,89.73
2023-12-05T13:29:28.638Z,90.06
2023-12-05T13:31:57.603Z,90.86
2023-12-05T13:34:26.300Z,90.93
2023-12-05T13:36:55.147Z,90.74
2023-12-05T13:39:25.224Z,90.25
2023-12-05T13:41:53.696Z,90.26
2023-12-05T13:44:22.131Z,90.66
2023-12-05T13:46:50.624Z,91.14
2023-12-05T13:49:19.254Z,90.96
2023-12-05T13:51:47.976Z,89.54
2023-12-05T13:54:16.580Z,89.91
2023-12-05T13:56:46.720Z,89.41
2023-12-05T13:59:15.176Z,90.42
2023-12-05T14:01:43.777Z,89.87
2023-12-05T14:04:12.391Z,89.57
2023-12-05T14:06:41.163Z,89.54
2023-12-05T14:09:10.744Z,90.64
2023-12-05T14:11:44.839Z,91.01
2023-12-05T14:14:15.709Z,91.62
2023-12-05T14:16:44.496Z,92.27
2023-12-05T14:19:13.221Z,91.91
2023-12-05T14:21:41.844Z,91.59
2023-12-05T14:24:10.248Z,92.71
2023-12-05T14:26:39.220Z,93.38
2023-12-05T14:29:07.576Z,92.97
2023-12-05T14:31:39.516Z,92.59
2023-12-05T14:34:09.559Z,92.79
2023-12-05T14:36:38.193Z,92.34
2023-12-05T14:39:10.848Z,91.69
2023-12-05T14:41:39.935Z,91.01
2023-12-05T14:44:08.658Z,90.06
2023-12-05T14:46:38.751Z,89.94
2023-12-05T14:49:07.358Z,90.62
2023-12-05T14:51:36.774Z,90.37
2023-12-05T14:54:05.429Z,91.45
2023-12-05T14:56:33.948Z,92.60
2023-12-05T14:59:02.501Z,92.35
2023-12-05T15:01:31.079Z,93.61
2023-12-05T15:04:02.296Z,93.22
2023-12-05T15:06:30.844Z,92.52
2023-12-05T15:09:00.744Z,92.03
2023-12-05T15:11:32.626Z,91.23
2023-12-05T15:14:01.179Z,91.15
2023-12-05T15:16:29.807Z,91.03
2023-12-05T15:18:58.376Z,90.77
2023-12-05T15:21:29.878Z,90.48
2023-12-05T15:24:00.075Z,90.57
2023-12-05T15:26:28.761Z,89.78
2023-12-05T15:28:57.269Z,89.20
2023-12-05T15:31:25.774Z,88.54
2023-12-05T15:33:56.188Z,89.35
2023-12-05T15:36:24.898Z,88.30
2023-12-05T15:38:54.748Z,88.98
2023-12-05T15:41:23.330Z,88.67
2023-12-05T15:43:52.405Z,88.43
2023-12-05T15:46:25.298Z,88.99
2023-12-05T15:48:53.949Z,88.41
2023-12-05T15:51:22.480Z,88.66
2023-12-05T15:53:50.970Z,90.18
2023-12-05T15:56:20.724Z,89.79
2023-12-05T15:58:51.621Z,90.21
2023-12-05T16:01:20.899Z,90.38
2023-12-05T16:03:50.214Z,89.38
2023-12-05T16:06:19.024Z,89.20
2023-12-05T16:08:48.102Z,89.05
2023-12-05T16:11:17.362Z,89.28
2023-12-05T16:13:48.618Z,89.38
2023-12-05T16:16:17.349Z,89.62
2023-12-05T16:18:46.124Z,89.83
2023-12-05T16:21:14.809Z,89.45
2023-12-05T16:23:43.386Z,88.94
2023-12-05T16:26:12.171Z,89.88
2023-12-05T16:28:40.882Z,90.05
2023-12-05T16:31:10.981Z,89.77
2023-12-05T16:33:39.807Z,89.65
2023-12-05T16:36:10.876Z,89.07
2023-12-05T16:38:39.404Z,88.93
2023-12-05T16:41:08.149Z,88.66
2023-12-05T16:43:36.582Z,88.99
2023-12-05T16:46:05.359Z,89.31
2023-12-05T16:48:35.729Z,88.76
2023-12-05T16:51:04.927Z,89.06
2023-12-05T16:53:33.391Z,89.27
2023-12-05T16:56:03.089Z,89.72
2023-12-05T16:58:31.652Z,89.54
2023-12-05T17:01:00.315Z,90.40
2023-12-05T17:03:29.135Z,90.84
2023-12-05T17:05:59.475Z,90.78
2023-12-05T17:08:27.936Z,90.53
2023-12-05T17:10:59.118Z,90.31
2023-12-05T17:13:27.626Z,90.17
2023-12-05T17:15:56.215Z,90.27
2023-12-05T17:18:25.167Z,90.53
2023-12-05T17:20:53.881Z,90.19
2023-12-05T17:23:23.750Z,89.57
2023-12-05T17:25:52.338Z,89.99
2023-12-05T17:28:20.807Z,90.57
2023-12-05T17:30:49.985Z,90.39
2023-12-05T17:33:19.188Z,90.13
2023-12-05T17:35:48.263Z,90.48
2023-12-05T17:38:17.538Z,90.01
2023-12-05T17:40:47.560Z,90.74
2023-12-05T17:43:16.057Z,90.16
2023-12-05T17:45:44.815Z,90.63
2023-12-05T17:48:13.401Z,90.73
2023-12-05T17:50:42.039Z,90.49
2023-12-05T17:53:10.486Z,90.72
2023-12-05T17:55:38.937Z,89.54
2023-12-05T17:58:08.946Z,89.64
2023-12-05T18:00:37.692Z,88.95
2023-12-05T18:03:06.258Z,89.00
2023-12-05T18:05:34.715Z,89.34
2023-12-05T18:08:08.665Z,88.47
2023-12-05T18:10:37.756Z,88.57
2023-12-05T18:13:06.376Z,87.69
2023-12-05T18:15:36.255Z,87.74
2023-12-05T18:18:05.354Z,87.91
2023-12-05T18:20:33.773Z,87.52
2023-12-05T18:23:02.277Z,88.17
2023-12-05T18:25:30.764Z,88.04
2023-12-05T18:27:59.266Z,88.51
2023-12-05T18:30:28.072Z,88.54
2023-12-05T18:32:59.251Z,88.94
2023-12-05T18:35:27.780Z,88.85
2023-12-05T18:37:56.423Z,89.38
2023-12-05T18:40:25.129Z,88.83
2023-12-05T18:42:54.374Z,88.81
2023-12-05T18:45:23.125Z,87.93
2023-12-05T18:47:51.791Z,87.71
2023-12-05T18:50:22.890Z,88.42
2023-12-05T18:52:51.512Z,87.86
2023-12-05T18:55:20.548Z,88.43
2023-12-05T18:57:49.124Z,88.83
2023-12-05T19:00:19.204Z,88.42
2023-12-05T19:02:48.221Z,88.06
2023-12-05T19:05:17.451Z,88.89
2023-12-05T19:07:47.854Z,88.98
2023-12-05T19:10:16.690Z,88.06
2023-12-05T19:12:46.313Z,87.89
2023-12-05T19:15:16.164Z,88.83
2023-12-05T19:17:44.917Z,89.45
2023-12-05T19:20:13.790Z,88.75
2023-12-05T19:22:42.295Z,88.68
2023-12-05T19:25:12.866Z,88.58
2023-12-05T19:27:41.837Z,88.22
2023-12-05T19:30:11.191Z,87.29
2023-12-05T19:32:39.845Z,87.83
2023-12-05T19:35:10.583Z,87.74
2023-12-05T19:37:39.486Z,87.08
2023-12-05T19:40:11.315Z,86.84
2023-12-05T19:42:39.731Z,87.89
2023-12-05T19:45:09.509Z,87.77
2023-12-05T19:47:37.989Z,87.21
2023-12-05T19:50:08.269Z,87.81
2023-12-05T19:52:36.766Z,87.35
2023-12-05T19:55:07.358Z,88.14
2023-12-05T19:57:37.318Z,88.17
2023-12-05T20:00:07.652Z,87.70
2023-12-05T20:02:36.079Z,87.65
2023-12-05T20:05:05.832Z,87.74
2023-12-05T20:07:34.396Z,86.51
2023-12-05T20:10:02.951Z,86.69
2023-12-05T20:12:31.422Z,86.45
2023-12-05T20:15:01.292Z,85.96
2023-12-05T20:17:29.775Z,86.36
2023-12-05T20:19:58.350Z,85.82
2023-12-05T20:22:29.396Z,86.92
2023-12-05T20:24:58.507Z,86.37
2023-12-05T20:27:27.950Z,86.61
2023-12-05T20:29:57.502Z,87.15
2023-12-05T20:32:27.465Z,86.98
2023-12-05T20:34:57.688Z,86.19
2023-12-05T20:37:26.156Z,87.63
2023-12-05T20:39:54.706Z,87.37
2023-12-05T20:42:27.732Z,88.53
2023-12-05T20:44:56.813Z,88.94
2023-12-05T20:47:27.107Z,88.33
2023-12-05T20:49:55.589Z,87.96
2023-12-05T20:52:25.504Z,88.88
2023-12-05T20:54:54.038Z,88.76
2023-12-05T20:57:22.395Z,89.16
2023-12-05T20:59:50.856Z,88.14
2023-12-05T21:02:19.870Z,88.61
2023-12-05T21:04:50.373Z,88.69
2023-12-05T21:07:20.951Z,88.49
2023-12-05T21:09:50.186Z,88.05
2023-12-05T21:12:19.066Z,88.03
2023-12-05T21:14:47.884Z,87.95
2023-12-05T21:17:16.370Z,88.00
2023-12-05T21:19:44.893Z,87.06
2023-12-05T21:22:14.864Z,87.12
2023-12-05T21:24:43.429Z,87.02
2023-12-05T21:27:11.967Z,87.07
2023-12-05T21:29:40.397Z,87.46
2023-12-05T21:32:09.082Z,86.58
2023-12-05T21:34:42.989Z,87.18
2023-12-05T21:37:11.809Z,87.19
2023-12-05T21:39:41.823Z,87.33
2023-12-05T21:42:10.361Z,88.30
2023-12-05T21:44:41.547Z,88.58
2023-12-05T21:47:10.405Z,89.04
2023-12-05T21:49:39.066Z,89.10
2023-12-05T21:52:08.778Z,89.22
2023-12-05T21:54:37.440Z,88.73
2023-12-05T21:57:07.586Z,88.81
2023-12-05T21:59:36.091Z,88.94
2023-12-05T22:02:04.589Z,88.71
2023-12-05T22:04:34.353Z,89.06
2023-12-05T22:07:03.144Z,88.92
2023-12-05T22:09:31.995Z,88.61
2023-12-05T22:12:00.513Z,88.79
2023-12-05T22:14:30.367Z,89.33
2023-12-05T22:16:58.856Z,88.96
2023-12-05T22:19:27.330Z,88.49
2023-12-05T22:21:55.873Z,88.63
2023-12-05T22:24:29.851Z,89.40
2023-12-05T22:27:01.377Z,87.82
2023-12-05T22:29:31.866Z,88.10
2023-12-05T22:32:00.443Z,88.05
2023-12-05T22:34:29.017Z,87.94
2023-12-05T22:36:57.618Z,87.76
2023-12-05T22:39:26.618Z,87.30
2023-12-05T22:41:55.505Z,86.90
2023-12-05T22:44:26.931Z,87.16
2023-12-05T22:46:56.693Z,87.18
2023-12-05T22:49:25.171Z,87.14
2023-12-05T22:51:53.760Z,87.58
2023-12-05T22:54:22.775Z,86.85
2023-12-05T22:56:51.197Z,87.37
2023-12-05T22:59:19.946Z,87.04
2023-12-05T23:01:48.738Z,86.38
2023-12-05T23:04:18.967Z,86.88
2023-12-05T23:06:47.878Z,86.67
2023-12-05T23:09:16.564Z,87.28
2023-12-05T23:11:46.538Z,86.10
2023-12-05T23:14:15.040Z,86.43
2023-12-05T23:16:43.657Z,86.41
2023-12-05T23:19:12.094Z,86.85
2023-12-05T23:21:42.071Z,87.21
2023-12-05T23:24:10.655Z,87.02
2023-12-05T23:26:39.147Z,86.97
2023-12-05T23:29:07.648Z,87.08
2023-12-05T23:31:36.110Z,86.67
2023-12-05T23:34:04.775Z,86.57
2023-12-05T23:36:33.328Z,86.71
2023-12-05T23:39:03.510Z,85.87
2023-12-05T23:41:31.990Z,86.31
2023-12-05T23:44:00.408Z,86.87
2023-12-05T23:46:28.925Z,86.53
2023-12-05T23:48:58.110Z,86.40
2023-12-05T23:51:26.552Z,86.13
2023-12-05T23:53:55.563Z,86.49
2023-12-05T23:56:25.444Z,86.36
2023-12-05T23:58:55.223Z,85.92
